CW8593 Gava ES current weather conditions

sailwx.info

Wind from 298 at 7 knots gusting 17

Air temperature 22.8° C
Dewpoint 10.5° C

Last reported at 2016-May-29 08:52 UTC.
Time now 2016-May-29 09:38 UTC

Location: N 41°18' E 001°60'.
View on Google Maps.

See reports from other nearby stations

  
Tides and Currents Weather Stations Pressure Air Temp Water Temp Dewpoint Dewpoint Depression Visibility Wind Speed Wind Dir Waves Ship Positions
date/time (UTC)wind fromknots sea level pressurealtimeterstation pressurevisibilityair tempwater tempwave heightnotes
2016-May-29 08:52 298 7 gusting 17 22.8
2016-May-29 08:42 243 7 gusting 17 22.2
2016-May-29 08:22 280 10 gusting 17 21.7
2016-May-29 08:17 254 8 gusting 15 21.7
2016-May-29 08:02 244 6 gusting 15 21.7
2016-May-29 07:57 298 6 gusting 10 21.7
2016-May-29 07:52 242 1 gusting 10 21.1
2016-May-29 07:47 267 5 gusting 13 21.1
2016-May-29 07:27 199 4 gusting 7 20.6
2016-May-29 07:22 244 3 gusting 7 20.6
2016-May-29 07:12 226 7 gusting 12 20.6
2016-May-29 07:07 251 2 gusting 10 20.6
2016-May-29 07:02 251 5 gusting 10 20.6
2016-May-29 06:57 262 7 gusting 12 20.0
2016-May-29 06:52 252 6 gusting 13 20.6
2016-May-29 06:37 253 0 gusting 6 20.0
2016-May-29 06:32 258 3 gusting 8 20.0
2016-May-29 06:27 273 7 gusting 13 20.0
2016-May-29 06:22 257 8 gusting 18 20.0
2016-May-29 06:02 315 19.4
2016-May-29 05:57 315 18.9
2016-May-29 05:52 315 0 gusting 4 18.9
2016-May-29 05:37 004 0 gusting 2 18.3
2016-May-29 05:27 003 18.3
2016-May-29 05:22 003 18.3
2016-May-29 05:17 003 17.8
2016-May-29 05:07 002 1 gusting 4 17.2
2016-May-29 04:52 246 17.2
2016-May-29 04:47 246 0 gusting 1 17.2
2016-May-29 04:42 246 1 gusting 2 17.2
2016-May-29 04:32 234 1 gusting 2 16.7
2016-May-29 04:27 018 16.7
2016-May-29 04:22 018 17.2
2016-May-29 04:12 018 17.2
2016-May-29 04:02 355 17.2
2016-May-29 03:57 355 17.2
2016-May-29 03:52 355 17.2
2016-May-29 03:47 355 17.2
2016-May-29 03:37 015 0 gusting 2 17.2
2016-May-29 03:17 17.2
2016-May-29 03:12 16.7
2016-May-29 03:07 16.7
2016-May-29 03:02 017 0 gusting 4 16.1
2016-May-29 02:52 303 0 gusting 4 16.1
2016-May-29 02:42 303 0 gusting 4 16.1
2016-May-29 02:37 303 16.1
2016-May-29 02:32 303 1 gusting 2 16.1
2016-May-29 02:22 303 0 gusting 1 16.1
2016-May-29 02:12 303 16.1
2016-May-29 02:07 303 16.1
2016-May-29 02:02 303 0 gusting 4 16.1
2016-May-29 01:57 304 16.1
2016-May-29 01:42 304 1 gusting 2 16.1
2016-May-29 01:37 304 0 gusting 2 16.7
2016-May-29 01:27 304 16.7
2016-May-29 01:12 299 16.7
2016-May-29 01:07 299 16.7
2016-May-29 01:02 299 0 gusting 2 16.7
2016-May-29 00:47 300 17.2
2016-May-29 00:42 300 17.2
2016-May-29 00:37 300 17.2
2016-May-29 00:32 300 17.2
2016-May-29 00:27 300 0 gusting 2 17.2
2016-May-29 00:22 299 2 gusting 6 17.2
2016-May-29 00:12 17.8
2016-May-29 00:07 330 2 gusting 4 17.8
2016-May-29 00:02 347 0 gusting 2 18.3
2016-May-28 23:42 344 0 gusting 6 18.3
2016-May-28 23:37 041 2 gusting 6 17.8
2016-May-28 23:27 096 17.8
2016-May-28 23:22 308 0 gusting 2 17.8
2016-May-28 23:17 302 17.2
2016-May-28 23:12 302 0 gusting 2 17.2
2016-May-28 23:07 302 1 gusting 2 17.8
2016-May-28 23:02 302 1 gusting 2 17.8
2016-May-28 22:57 302 17.8
2016-May-28 22:52 302 17.8
2016-May-28 22:47 302 17.8
2016-May-28 22:42 302 17.8
2016-May-28 22:37 302 17.8
2016-May-28 22:27 302 5 gusting 6 17.2
2016-May-28 22:12 037 17.8
2016-May-28 22:07 037 1 gusting 2 18.3
2016-May-28 22:02 038 0 gusting 2 18.3
2016-May-28 21:57 038 0 gusting 2 18.3
2016-May-28 21:42 172 18.9
2016-May-28 21:27 101 0 gusting 2 19.4
2016-May-28 21:22 101 0 gusting 4 19.4
2016-May-28 21:17 099 1 gusting 4 19.4
2016-May-28 21:12 008 0 gusting 4 18.9
2016-May-28 21:07 18.9
2016-May-28 21:02 344 1 gusting 7 18.9
2016-May-28 20:52 217 5 gusting 10 18.9
2016-May-28 20:47 219 18.9
2016-May-28 20:42 219 18.9
2016-May-28 20:37 219 0 gusting 4 18.9
2016-May-28 20:32 222 2 gusting 4 18.9
2016-May-28 20:17 169 18.9
2016-May-28 20:12 169 0 gusting 2 18.9
2016-May-28 20:07 169 0 gusting 2 18.9
2016-May-28 19:47 157 4 gusting 6 18.9
2016-May-28 19:42 166 0 gusting 5 18.9
2016-May-28 19:37 167 0 gusting 4 18.9
2016-May-28 19:32 167 0 gusting 2 18.9
2016-May-28 19:27 167 1 gusting 2 18.9
2016-May-28 19:22 167 1 gusting 5 18.9
2016-May-28 19:17 165 2 gusting 4 18.9
2016-May-28 19:12 160 1 gusting 4 18.9
2016-May-28 19:07 160 2 gusting 5 18.9
2016-May-28 19:02 142 18.9
2016-May-28 18:57 142 2 gusting 4 18.9
2016-May-28 18:47 128 2 gusting 4 18.9
2016-May-28 18:32 144 2 gusting 5 19.4
2016-May-28 18:17 115 5 gusting 7 20.6
2016-May-28 18:12 140 4 gusting 6 21.1
2016-May-28 18:02 115 3 gusting 6 21.7
2016-May-28 17:57 101 1 gusting 2 21.7
2016-May-28 17:52 101 21.7
2016-May-28 17:47 101 0 gusting 4 21.7
2016-May-28 17:37 073 0 gusting 4 21.7
2016-May-28 17:27 038 0 gusting 2 21.7
2016-May-28 17:22 029 21.7
2016-May-28 17:17 030 0 gusting 4 21.7
2016-May-28 17:07 159 0 gusting 2 21.1
2016-May-28 17:02 159 21.1
2016-May-28 16:52 128 0 gusting 2 20.6
2016-May-28 16:47 128 20.6
2016-May-28 16:27 126 0 gusting 2 19.4
2016-May-28 16:02 155 0 gusting 5 20.0
2016-May-28 15:52 162 3 gusting 7 20.0
2016-May-28 15:37 142 5 gusting 7 20.6
2016-May-28 15:02 144 3 gusting 8 21.7
2016-May-28 14:52 119 21.1
2016-May-28 14:47 119 1 gusting 4 21.1
2016-May-28 14:42 079 0 gusting 2 20.6
2016-May-28 14:22 167 1 gusting 5 20.0
2016-May-28 14:17 157 4 gusting 7 19.4
2016-May-28 14:12 153 6 gusting 10 20.0
2016-May-28 14:02 144 4 gusting 10 20.0
2016-May-28 13:57 164 7 gusting 13 20.0
2016-May-28 13:47 141 6 gusting 11 20.0
2016-May-28 13:22 131 6 gusting 11 21.1
2016-May-28 13:07 152 6 gusting 11 21.1
2016-May-28 13:02 135 5 gusting 8 21.7
2016-May-28 12:42 165 3 gusting 6 20.6
2016-May-28 12:32 132 4 gusting 7 20.6
2016-May-28 12:27 170 4 gusting 10 20.6
2016-May-28 12:22 134 4 gusting 8 20.6
2016-May-28 12:17 142 4 gusting 10 20.6
2016-May-28 12:12 147 4 gusting 7 20.6
2016-May-28 12:02 163 5 gusting 10 20.6
2016-May-28 11:52 124 4 gusting 8 20.6
2016-May-28 11:47 174 4 gusting 10 20.6
2016-May-28 11:42 151 4 gusting 7 20.6
2016-May-28 11:37 147 4 gusting 10 20.6
2016-May-28 11:12 106 20.6
2016-May-28 10:57 131 0 gusting 2 20.0
2016-May-28 10:52 131 19.4
2016-May-28 10:37 146 3 gusting 5 19.4
2016-May-28 10:32 134 2 gusting 5 19.4
2016-May-28 10:27 163 2 gusting 5 19.4
2016-May-28 10:22 161 1 gusting 5 19.4
2016-May-28 10:12 156 1 gusting 6 19.4
2016-May-28 10:07 156 2 gusting 5 19.4
2016-May-28 10:02 053 0 gusting 2 19.4
2016-May-28 09:47 052 18.9
2016-May-28 09:42 052 0 gusting 2 18.9
2016-May-28 09:37 051 1 gusting 2 18.9
2016-May-28 09:32 329 18.9
2016-May-28 09:17 329 18.3
2016-May-28 09:07 059 0 gusting 2 18.3
2016-May-28 09:02 059 0 gusting 2 18.3
2016-May-28 08:47 076 17.8
2016-May-28 08:37 076 17.8
2016-May-28 08:32 077 17.8
2016-May-28 08:27 077 17.2
2016-May-28 08:22 077 1 gusting 2 17.2
2016-May-28 08:07 077 17.2
2016-May-28 07:57 076 1 gusting 2 17.2
2016-May-28 07:52 076 1 gusting 2 17.2
2016-May-28 07:42 017 0 gusting 2 17.2
2016-May-28 07:27 003 17.2
2016-May-28 07:17 003 17.2
2016-May-28 07:07 003 17.2
2016-May-28 06:57 003 17.2
2016-May-28 06:47 003 17.2
2016-May-28 06:42 003 17.2
2016-May-28 06:22 003 17.2
2016-May-28 06:12 004 17.2
2016-May-28 06:02 355 17.8
2016-May-28 05:52 355 17.2
2016-May-28 05:42 355 17.2
2016-May-28 05:37 355 17.2
2016-May-28 05:27 355 17.2
2016-May-28 05:22 355 17.2
2016-May-28 05:12 355 0 gusting 2 17.2
2016-May-28 04:57 355 16.7
2016-May-28 04:52 355 16.7
2016-May-28 04:47 355 16.7
2016-May-28 04:37 355 16.7
2016-May-28 04:32 355 16.7
2016-May-28 04:27 355 16.1
2016-May-28 04:22 355 16.1
2016-May-28 04:17 355 16.1
2016-May-28 04:12 355 0 gusting 1 16.1
2016-May-28 04:07 355 0 gusting 1 16.1
2016-May-28 03:57 355 15.6
2016-May-28 03:52 355 15.6
2016-May-28 03:47 004 0 gusting 2 15.6
2016-May-28 03:37 003 15.0
2016-May-28 03:27 003 15.0
2016-May-28 03:07 003 15.6
2016-May-28 03:02 003 15.6
2016-May-28 02:57 003 15.6
2016-May-28 02:47 003 15.6
2016-May-28 02:37 003 15.6
2016-May-28 02:27 002 0 gusting 1 15.6
2016-May-28 02:22 003 15.6
2016-May-28 02:17 004 15.6
2016-May-28 02:12 003 16.1
2016-May-28 01:52 004 15.6
2016-May-28 01:47 003 15.6
2016-May-28 01:42 003 16.1
2016-May-28 01:32 004 16.1
2016-May-28 01:27 003 16.1
2016-May-28 01:07 004 16.1
2016-May-28 00:57 003 16.1
2016-May-28 00:47 003 16.1
2016-May-28 00:37 003 16.1
2016-May-28 00:32 003 16.1
2016-May-28 00:27 003 16.1
2016-May-28 00:22 003 16.1
2016-May-28 00:12 003 1 gusting 2 16.7
2016-May-28 00:07 003 16.7
2016-May-28 00:02 004 17.2
2016-May-27 23:57 003 17.2
2016-May-27 23:52 004 16.7
2016-May-27 23:37 003 0 gusting 4 16.7
2016-May-27 23:32 003 1 gusting 5 16.7
2016-May-27 23:22 16.7
2016-May-27 23:17 16.7
2016-May-27 23:07 249 0 gusting 2 16.7
2016-May-27 22:57 249 16.1
2016-May-27 22:52 249 16.1
2016-May-27 22:47 249 1 gusting 2 16.1
2016-May-27 22:37 249 0 gusting 2 16.7
2016-May-27 22:32 249 16.7
2016-May-27 22:27 249 17.2
2016-May-27 22:22 249 17.2
2016-May-27 22:12 249 17.2
2016-May-27 21:47 249 17.2
2016-May-27 21:42 249 17.2
2016-May-27 21:37 249 17.2
2016-May-27 21:22 249 17.2
2016-May-27 21:12 249 17.2
2016-May-27 21:07 249 17.2
2016-May-27 21:02 249 17.2
2016-May-27 20:57 249 17.2
2016-May-27 20:52 249 17.8
2016-May-27 20:47 249 17.8
2016-May-27 20:42 249 17.8
2016-May-27 20:37 249 0 gusting 1 17.8
2016-May-27 20:17 249 1 gusting 2 17.8
2016-May-27 20:02 248 0 gusting 2 17.8
2016-May-27 19:52 250 18.3
2016-May-27 19:47 226 1 gusting 6 18.3
2016-May-27 19:32 205 3 gusting 8 18.3
2016-May-27 19:22 192 3 gusting 7 18.3
2016-May-27 19:07 201 3 gusting 7 18.9
2016-May-27 19:02 196 5 gusting 7 18.9
2016-May-27 18:52 197 3 gusting 6 18.9
2016-May-27 18:47 190 2 gusting 7 18.9
2016-May-27 18:42 186 4 gusting 8 18.9
2016-May-27 18:27 190 2 gusting 8 19.4
2016-May-27 18:22 191 4 gusting 6 19.4
2016-May-27 18:12 171 0 gusting 6 19.4
2016-May-27 18:07 171 1 gusting 4 19.4
2016-May-27 18:02 171 4 gusting 6 19.4
2016-May-27 17:52 211 0 gusting 2 20.0
2016-May-27 17:47 211 0 gusting 5 20.0
2016-May-27 17:42 167 1 gusting 6 20.0
2016-May-27 17:32 133 2 gusting 8 20.0
2016-May-27 17:27 225 3 gusting 6 20.0
2016-May-27 17:12 190 2 gusting 8 20.0
2016-May-27 16:57 132 2 gusting 7 20.0
2016-May-27 16:52 158 2 gusting 7 20.0
2016-May-27 16:37 156 2 gusting 6 20.6
2016-May-27 16:27 200 3 gusting 7 20.6
2016-May-27 16:07 149 4 gusting 6 20.6
2016-May-27 15:57 143 4 gusting 10 20.6
2016-May-27 15:52 206 4 gusting 7 20.0
2016-May-27 15:37 133 4 gusting 7 20.6
2016-May-27 15:27 158 3 gusting 7 20.6
2016-May-27 15:12 143 6 gusting 10 20.6
2016-May-27 15:02 210 3 gusting 8 20.6
2016-May-27 14:57 184 2 gusting 6 20.6
2016-May-27 14:47 138 4 gusting 7 20.0
2016-May-27 14:32 147 3 gusting 6 20.0
2016-May-27 14:22 133 5 gusting 10 20.0
2016-May-27 14:12 159 3 gusting 10 20.0
2016-May-27 14:02 162 3 gusting 8 20.0
2016-May-27 13:52 167 6 gusting 11 19.4
2016-May-27 13:47 162 6 gusting 10 20.0
2016-May-27 13:42 139 6 gusting 10 19.4
2016-May-27 13:37 138 6 gusting 10 19.4
2016-May-27 13:32 135 5 gusting 10 20.0
2016-May-27 13:27 153 5 gusting 11 20.0
2016-May-27 13:22 176 6 gusting 10 20.0
2016-May-27 13:12 146 5 gusting 8 20.0
2016-May-27 13:07 146 6 gusting 13 20.0
2016-May-27 12:52 151 5 gusting 12 20.6
2016-May-27 12:47 169 5 gusting 10 20.0
2016-May-27 12:42 184 6 gusting 10 20.6
2016-May-27 12:37 159 6 gusting 10 20.0
2016-May-27 12:27 170 5 gusting 10 20.6
2016-May-27 12:22 153 2 gusting 10 21.1
2016-May-27 12:07 172 1 gusting 6 21.1
2016-May-27 11:57 147 2 gusting 7 21.7
2016-May-27 11:52 156 4 gusting 6 21.1
2016-May-27 11:42 161 4 gusting 10 21.1
2016-May-27 11:37 152 5 gusting 10 21.7
2016-May-27 11:32 171 5 gusting 11 22.2
2016-May-27 11:22 145 2 gusting 6 22.8
2016-May-27 11:07 140 2 gusting 6 22.2
2016-May-27 11:02 137 2 gusting 6 22.2
2016-May-27 10:57 158 4 gusting 6 22.2
2016-May-27 10:52 138 3 gusting 6 22.2
2016-May-27 10:47 151 0 gusting 5 22.2
2016-May-27 10:27 137 1 gusting 4 22.2
2016-May-27 10:22 112 1 gusting 5 22.2
2016-May-27 10:17 145 0 gusting 5 21.7
2016-May-27 10:12 146 1 gusting 5 21.7
2016-May-27 10:07 145 1 gusting 5 21.1
2016-May-27 09:57 135 1 gusting 5 21.1
2016-May-27 09:52 160 2 gusting 5 21.1
2016-May-27 09:37 179 2 gusting 6 20.6
2016-May-27 09:32 148 1 gusting 5 20.6